Time;durP1;ratioP1;P1;durP2;ratioP2;P2;SDS_P1;SDS_P2;PMS_P1;PMS_P2;Temp;Humidity;BMP_temperature;BMP_pressure;BME280_temperature;BME280_humidity;BME280_pressure;Samples;Min_cycle;Max_cycle;Signal;HPM_P1;HPM_P2
2022/08/02 00:01:24;;;;;;;12.80;7.03;;;;;;;16.79;82.08;99643.88;5075199;28;20039;-57
2022/08/02 00:03:50;;;;;;;15.70;7.43;;;;;;;16.57;82.22;99636.88;5073935;28;20387;-57
2022/08/02 00:06:15;;;;;;;13.07;7.57;;;;;;;16.52;81.94;99641.44;5073378;28;20025;-58
2022/08/02 00:08:40;;;;;;;13.52;8.05;;;;;;;16.27;83.44;99642.25;5074556;28;20082;-57
2022/08/02 00:11:06;;;;;;;11.13;8.00;;;;;;;16.16;84.86;99642.25;5074473;28;20066;-56
2022/08/02 00:13:31;;;;;;;16.02;7.97;;;;;;;16.11;84.66;99642.25;5074399;28;20371;-56
2022/08/02 00:15:57;;;;;;;9.90;6.15;;;;;;;16.29;84.30;99632.78;5074197;28;20765;-56
2022/08/02 00:18:22;;;;;;;12.13;6.72;;;;;;;16.25;83.98;99639.00;5073949;28;20028;-56
2022/08/02 00:20:47;;;;;;;16.48;7.18;;;;;;;16.16;84.17;99634.16;5074128;28;20028;-56
2022/08/02 00:23:13;;;;;;;12.93;6.55;;;;;;;16.21;84.30;99640.66;5074359;28;20044;-57
2022/08/02 00:25:39;;;;;;;12.60;7.07;;;;;;;16.25;84.10;99647.13;5074124;28;20017;-56
2022/08/02 00:28:04;;;;;;;12.10;6.97;;;;;;;16.13;84.55;99636.59;5073881;28;20055;-56
2022/08/02 00:30:30;;;;;;;13.45;8.05;;;;;;;16.10;84.83;99640.63;5074060;28;20383;-57
2022/08/02 00:32:55;;;;;;;11.10;7.45;;;;;;;15.98;85.39;99642.78;5073646;28;20032;-56
2022/08/02 00:35:21;;;;;;;11.90;7.45;;;;;;;16.01;85.33;99647.66;5079094;28;20025;-57
2022/08/02 00:37:46;;;;;;;20.85;8.05;;;;;;;15.96;85.88;99650.34;5076460;28;20067;-57
2022/08/02 00:40:11;;;;;;;13.10;7.78;;;;;;;16.00;86.21;99654.16;5075706;28;20032;-56
2022/08/02 00:42:40;;;;;;;13.18;7.68;;;;;;;15.95;86.02;99651.44;5056007;28;20033;-56
2022/08/02 00:45:06;;;;;;;15.82;8.10;;;;;;;15.91;86.24;99653.03;5072380;28;20067;-56
2022/08/02 00:47:32;;;;;;;13.45;7.53;;;;;;;15.86;86.11;99645.72;5073927;28;20316;-56
2022/08/02 00:49:57;;;;;;;11.05;7.32;;;;;;;15.85;86.33;99643.28;5086596;28;20020;-56
2022/08/02 00:52:23;;;;;;;14.65;8.02;;;;;;;15.86;86.38;99645.72;5072544;28;20021;-57
2022/08/02 00:54:49;;;;;;;13.10;7.63;;;;;;;15.87;85.79;99641.13;5073861;28;20055;-56
2022/08/02 00:57:14;;;;;;;11.27;6.93;;;;;;;15.75;87.18;99638.69;5073679;28;20467;-56
2022/08/02 00:59:40;;;;;;;13.60;7.82;;;;;;;15.78;86.75;99626.53;5073307;28;20028;-56
2022/08/02 01:02:06;;;;;;;10.93;6.72;;;;;;;15.86;87.17;99639.53;5073445;28;20078;-56
2022/08/02 01:04:32;;;;;;;18.90;7.72;;;;;;;15.69;87.21;99631.59;5073435;28;20131;-56
2022/08/02 01:07:00;;;;;;;10.63;6.93;;;;;;;15.73;87.11;99636.25;5073279;28;20031;-56
2022/08/02 01:09:25;;;;;;;12.02;7.35;;;;;;;15.66;86.59;99638.34;5073404;28;20059;-56
2022/08/02 01:11:51;;;;;;;13.20;7.53;;;;;;;15.56;87.77;99630.22;5073371;28;20351;-56
2022/08/02 01:14:16;;;;;;;13.43;7.28;;;;;;;15.59;87.87;99632.38;5071646;28;20105;-56
2022/08/02 01:16:59;;;;;;;11.57;7.05;;;;;;;15.61;86.79;99632.94;5071808;28;20482;-56
2022/08/02 01:19:40;;;;;;;13.15;6.85;;;;;;;15.55;87.02;99636.72;5071261;28;20031;-56
2022/08/02 01:22:34;;;;;;;10.77;7.28;;;;;;;15.55;86.62;99628.59;5069420;28;20020;-56
2022/08/02 01:25:14;;;;;;;11.73;6.85;;;;;;;15.37;86.97;99620.97;5072810;28;20048;-55
2022/08/02 01:28:07;;;;;;;14.45;7.70;;;;;;;15.29;87.83;99622.28;5073079;28;20031;-55
2022/08/02 01:30:32;;;;;;;16.48;8.05;;;;;;;15.31;87.45;99620.94;5077746;28;20024;-55
2022/08/02 01:32:58;;;;;;;11.13;7.55;;;;;;;15.38;86.93;99619.91;5054359;28;20051;-55
2022/08/02 01:35:34;;;;;;;14.00;6.72;;;;;;;15.34;87.33;99618.78;5071673;28;20028;-56
2022/08/02 01:38:13;;;;;;;11.50;7.70;;;;;;;15.40;86.91;99615.03;5071740;28;20020;-55
2022/08/02 01:40:38;;;;;;;13.52;7.20;;;;;;;15.24;87.58;99617.66;5071436;28;20021;-55
2022/08/02 01:43:04;;;;;;;11.43;7.55;;;;;;;15.20;87.68;99619.28;5071391;28;20501;-55
2022/08/02 01:45:31;;;;;;;17.73;8.38;;;;;;;15.13;88.09;99621.41;5071722;28;20028;-56
2022/08/02 01:47:57;;;;;;;13.15;7.95;;;;;;;15.11;87.93;99628.94;5070984;28;20127;-55
2022/08/02 01:50:28;;;;;;;24.23;8.57;;;;;;;15.14;87.80;99622.22;5054380;28;20360;-56
2022/08/02 01:52:55;;;;;;;13.00;7.68;;;;;;;15.17;87.06;99627.88;5071382;28;20111;-55
2022/08/02 01:55:22;;;;;;;14.90;8.43;;;;;;;15.21;87.01;99629.00;5071065;28;20206;-55
2022/08/02 01:57:58;;;;;;;18.30;8.88;;;;;;;15.14;87.13;99631.13;5072194;28;20368;-56
2022/08/02 02:00:25;;;;;;;17.35;8.30;;;;;;;15.15;87.29;99626.53;5070890;28;20032;-55
2022/08/02 02:02:51;;;;;;;16.73;8.32;;;;;;;15.12;87.51;99625.16;5070643;28;20039;-58
2022/08/02 02:05:19;;;;;;;13.65;7.85;;;;;;;15.18;87.45;99634.13;5063895;28;20126;-55
2022/08/02 02:07:45;;;;;;;12.82;7.95;;;;;;;15.17;87.45;99633.28;5072181;28;20059;-56
2022/08/02 02:10:15;;;;;;;15.88;7.88;;;;;;;15.18;86.36;99629.53;5071512;28;20158;-56
2022/08/02 02:12:41;;;;;;;;;;;;;;;15.18;87.70;99628.72;5071468;28;20035;-56
2022/08/02 02:15:08;;;;;;;15.27;7.75;;;;;;;15.11;87.16;99628.94;5072370;28;20375;-55
2022/08/02 02:17:34;;;;;;;14.27;7.82;;;;;;;15.15;85.97;99635.47;5070884;28;20036;-55
2022/08/02 02:19:59;;;;;;;14.40;8.10;;;;;;;14.87;86.32;99640.13;5089902;28;20021;-56
2022/08/02 02:22:24;;;;;;;16.15;8.18;;;;;;;14.80;87.22;99634.19;5073517;28;20032;-56
2022/08/02 02:24:50;;;;;;;17.35;7.55;;;;;;;14.64;88.24;99632.44;5070770;28;20029;-55
2022/08/02 02:27:15;;;;;;;14.23;8.27;;;;;;;14.67;89.20;99640.81;5081477;28;20471;-55
2022/08/02 02:29:43;;;;;;;19.20;9.15;;;;;;;14.59;89.79;99627.00;5071901;28;20505;-56
2022/08/02 02:32:08;;;;;;;17.98;9.32;;;;;;;14.57;90.04;99629.16;5060897;28;20028;-55
2022/08/02 02:34:38;;;;;;;16.88;9.80;;;;;;;14.46;90.82;99623.66;5070463;28;20020;-56
2022/08/02 02:37:07;;;;;;;18.15;9.23;;;;;;;14.57;90.99;99623.75;5070940;28;20028;-55
2022/08/02 02:39:32;;;;;;;14.77;9.40;;;;;;;14.57;90.55;99613.78;5070740;28;20067;-55
2022/08/02 02:42:00;;;;;;;18.73;11.40;;;;;;;14.70;90.52;99607.13;5054034;28;20025;-54
2022/08/02 02:44:25;;;;;;;17.35;10.88;;;;;;;14.56;91.18;99605.97;5061533;28;20043;-55
2022/08/02 02:46:53;;;;;;;22.85;11.18;;;;;;;14.49;91.95;99605.34;5070928;28;20413;-55
2022/08/02 02:49:19;;;;;;;16.52;11.38;;;;;;;14.60;91.19;99607.88;5070029;28;20029;-55
2022/08/02 02:51:44;;;;;;;15.80;10.85;;;;;;;14.73;90.93;99608.50;5056570;28;20017;-55
2022/08/02 02:54:10;;;;;;;15.90;9.25;;;;;;;14.66;89.45;99603.34;5071111;28;20036;-55
2022/08/02 02:56:36;;;;;;;22.20;10.93;;;;;;;14.63;90.01;99603.84;5070562;28;20031;-56
2022/08/02 02:59:01;;;;;;;17.88;11.52;;;;;;;14.36;91.46;99604.72;5070683;28;20032;-55
2022/08/02 03:01:27;;;;;;;19.27;9.90;;;;;;;14.26;90.92;99612.72;5072881;28;20031;-55
2022/08/02 03:03:53;;;;;;;17.35;10.60;;;;;;;14.41;91.34;99614.72;5075728;28;20114;-55
2022/08/02 03:06:19;;;;;;;20.63;10.48;;;;;;;14.23;91.67;99614.03;5074446;28;20467;-55
2022/08/02 03:08:44;;;;;;;17.10;10.20;;;;;;;14.34;92.10;99608.72;5080425;28;20016;-55
2022/08/02 03:11:10;;;;;;;22.73;13.38;;;;;;;14.43;93.26;99612.59;5078733;28;20117;-55
2022/08/02 03:13:36;;;;;;;21.42;12.07;;;;;;;14.39;93.67;99601.50;5066817;28;20032;-55
2022/08/02 03:16:03;;;;;;;25.20;13.25;;;;;;;14.41;92.54;99607.44;5074512;28;20240;-56
2022/08/02 03:18:35;;;;;;;21.45;11.77;;;;;;;14.31;92.40;99607.38;5074830;28;20421;-55
2022/08/02 03:21:05;;;;;;;20.85;12.38;;;;;;;14.33;93.62;99607.94;5075304;28;20028;-55
2022/08/02 03:23:30;;;;;;;20.85;11.95;;;;;;;14.46;92.43;99612.06;5075382;28;20039;-56
2022/08/02 03:25:56;;;;;;;19.35;11.05;;;;;;;14.35;90.53;99603.09;5070657;28;20032;-55
2022/08/02 03:28:22;;;;;;;15.55;10.15;;;;;;;13.95;91.79;99606.22;5075254;28;20490;-55
2022/08/02 03:30:47;;;;;;;16.15;10.48;;;;;;;13.89;91.86;99605.38;5075265;28;20061;-56
2022/08/02 03:33:12;;;;;;;16.92;10.90;;;;;;;13.82;93.12;99604.75;5074444;28;20072;-55
2022/08/02 03:35:39;;;;;;;20.60;10.35;;;;;;;13.80;92.94;99604.19;5073781;28;20378;-55
2022/08/02 03:38:04;;;;;;;14.32;9.90;;;;;;;13.78;93.35;99595.59;5073587;28;20033;-55
2022/08/02 03:40:30;;;;;;;19.65;10.68;;;;;;;13.70;93.65;99602.22;5073821;28;20024;-56
2022/08/02 03:42:55;;;;;;;19.55;12.15;;;;;;;13.86;94.96;99603.19;5057091;28;20025;-55
2022/08/02 03:45:20;;;;;;;21.77;12.38;;;;;;;13.79;95.95;99597.19;5078156;28;20059;-55
2022/08/02 03:47:46;;;;;;;19.35;13.23;;;;;;;13.81;96.18;99597.75;5073110;28;20037;-55
2022/08/02 03:50:12;;;;;;;22.27;13.43;;;;;;;13.96;96.06;99597.91;5073641;28;20085;-55
2022/08/02 03:52:39;;;;;;;22.67;14.40;;;;;;;14.11;94.63;99593.72;5074441;28;20032;-55
2022/08/02 03:55:04;;;;;;;21.25;13.45;;;;;;;14.19;94.38;99590.56;5075061;28;20043;-55
2022/08/02 03:57:30;;;;;;;20.02;12.95;;;;;;;14.03;94.71;99581.53;5074694;28;20024;-56
2022/08/02 03:59:55;;;;;;;26.73;14.73;;;;;;;13.90;95.82;99598.91;5058594;28;20024;-55
2022/08/02 04:02:21;;;;;;;22.17;14.00;;;;;;;14.03;95.33;99589.63;5074273;28;20025;-55
2022/08/02 04:04:46;;;;;;;25.10;14.30;;;;;;;14.06;94.96;99586.41;5079958;28;20040;-55
2022/08/02 04:07:11;;;;;;;23.35;12.15;;;;;;;14.07;93.75;99579.13;5074448;28;20398;-55
2022/08/02 04:09:37;;;;;;;18.48;11.30;;;;;;;14.08;92.76;99591.53;5074606;28;20471;-55
2022/08/02 04:12:02;;;;;;;17.63;10.50;;;;;;;14.07;90.74;99592.59;5074227;28;20020;-55
2022/08/02 04:14:28;;;;;;;19.27;10.77;;;;;;;14.05;90.40;99603.63;5076607;28;20046;-55
2022/08/02 04:16:55;;;;;;;22.38;11.95;;;;;;;13.99;92.58;99610.06;5075280;28;20016;-56
2022/08/02 04:19:31;;;;;;;22.10;12.95;;;;;;;14.00;93.97;99599.03;5073863;28;20024;-58
2022/08/02 04:21:58;;;;;;;20.23;12.57;;;;;;;14.00;94.50;99614.34;5076724;28;20028;-56
2022/08/02 04:24:30;;;;;;;21.83;13.13;;;;;;;14.26;93.82;99601.94;5072727;28;20035;-56
2022/08/02 04:26:56;;;;;;;17.80;10.93;;;;;;;15.31;89.59;99609.34;5072974;28;20028;-55
2022/08/02 04:29:22;;;;;;;20.38;11.70;;;;;;;16.55;81.82;99617.38;5080700;28;20028;-55
2022/08/02 04:31:47;;;;;;;19.55;10.98;;;;;;;16.86;79.60;99608.44;5073068;28;20471;-56
2022/08/02 04:34:12;;;;;;;19.42;11.10;;;;;;;15.39;85.55;99608.00;5071966;28;20051;-56
2022/08/02 04:36:38;;;;;;;20.00;11.38;;;;;;;15.25;87.85;99603.09;5075084;28;20407;-57
2022/08/02 04:39:03;;;;;;;17.67;11.23;;;;;;;15.47;86.48;99605.59;5055752;28;20024;-56
2022/08/02 04:41:53;;;;;;;19.27;11.25;;;;;;;15.56;85.25;99608.59;5072613;28;20029;-55
2022/08/02 04:44:19;;;;;;;19.65;12.13;;;;;;;15.95;83.98;99610.88;5073863;28;20082;-56
2022/08/02 04:46:44;;;;;;;14.77;9.98;;;;;;;16.09;84.10;99613.84;5076985;28;20032;-56
2022/08/02 04:49:10;;;;;;;19.10;11.38;;;;;;;16.15;81.68;99626.31;5073477;28;20490;-56
2022/08/02 04:51:37;;;;;;;17.58;11.35;;;;;;;16.81;79.89;99630.91;5076887;28;20036;-55
2022/08/02 04:54:03;;;;;;;18.63;11.20;;;;;;;17.42;77.04;99630.72;5073278;28;20032;-56
2022/08/02 04:56:28;;;;;;;15.77;10.35;;;;;;;18.70;73.08;99632.56;5075664;28;20028;-57
2022/08/02 04:58:54;;;;;;;16.10;9.35;;;;;;;19.05;69.34;99644.19;5085639;28;20391;-58
2022/08/02 05:01:19;;;;;;;16.27;9.43;;;;;;;18.50;72.33;99638.97;5073500;28;20036;-57
2022/08/02 05:03:45;;;;;;;13.32;9.82;;;;;;;18.91;71.00;99638.63;5072850;28;20036;-57
2022/08/02 05:06:10;;;;;;;15.02;9.68;;;;;;;19.47;67.94;99637.19;5071967;28;20078;-57
2022/08/02 05:08:35;;;;;;;17.40;9.77;;;;;;;18.85;69.61;99636.25;5073440;28;20024;-56
2022/08/02 05:11:01;;;;;;;17.10;9.43;;;;;;;18.91;70.14;99635.09;5077137;28;20084;-57
2022/08/02 05:13:26;;;;;;;15.70;8.80;;;;;;;20.35;65.55;99632.13;5077824;28;20032;-55
2022/08/02 05:15:52;;;;;;;13.23;8.63;;;;;;;22.24;59.48;99640.38;5080469;28;20043;-57
2022/08/02 05:18:17;;;;;;;15.35;8.40;;;;;;;23.33;55.86;99640.81;5072553;28;20537;-54
2022/08/02 05:20:43;;;;;;;17.15;8.38;;;;;;;23.41;55.42;99642.81;5071485;28;20471;-55
2022/08/02 05:23:08;;;;;;;14.13;8.40;;;;;;;23.18;55.69;99642.06;5073114;28;20029;-55
2022/08/02 05:25:33;;;;;;;12.43;7.85;;;;;;;22.71;56.70;99652.59;5072725;28;20027;-55
2022/08/02 05:27:59;;;;;;;12.23;8.73;;;;;;;20.93;62.39;99654.56;5072745;28;20380;-57
2022/08/02 05:30:24;;;;;;;12.48;8.95;;;;;;;19.67;66.77;99646.16;5072553;28;20032;-58
2022/08/02 05:32:52;;;;;;;13.45;9.20;;;;;;;20.55;65.52;99649.25;5072177;28;20082;-60
2022/08/02 05:35:19;;;;;;;16.05;9.55;;;;;;;22.19;60.14;99652.22;5077383;28;20428;-57
2022/08/02 05:37:45;;;;;;;15.85;8.90;;;;;;;23.10;56.92;99653.78;5073263;28;20021;-58
2022/08/02 05:40:11;;;;;;;15.38;8.25;;;;;;;23.46;57.34;99655.50;5075502;28;20024;-57
2022/08/02 05:42:36;;;;;;;15.27;9.02;;;;;;;23.54;55.66;99651.16;5072439;28;20123;-57
2022/08/02 05:45:03;;;;;;;12.60;8.82;;;;;;;21.84;59.01;99648.38;5073814;28;20032;-56
2022/08/02 05:47:28;;;;;;;17.38;8.82;;;;;;;23.00;57.39;99649.41;5072480;28;20028;-57
2022/08/02 05:49:54;;;;;;;13.18;8.98;;;;;;;23.44;55.80;99644.91;5070895;28;20081;-60
2022/08/02 05:52:19;;;;;;;16.33;8.75;;;;;;;23.59;55.30;99654.59;5072103;28;20079;-56
2022/08/02 05:54:49;;;;;;;16.50;8.95;;;;;;;25.02;51.61;99656.63;5070840;28;20039;-56
2022/08/02 05:57:36;;;;;;;12.13;8.13;;;;;;;25.31;50.79;99656.69;5073831;28;20035;-58
2022/08/02 06:00:12;;;;;;;13.30;8.68;;;;;;;26.23;48.23;99666.91;5072405;28;20513;-58
2022/08/02 06:02:52;;;;;;;12.82;8.27;;;;;;;26.31;47.46;99665.22;5072134;28;20040;-56
2022/08/02 06:05:20;;;;;;;11.50;7.93;;;;;;;26.37;48.01;99669.34;5072050;28;21334;-57
2022/08/02 06:07:48;;;;;;;16.50;8.98;;;;;;;23.76;53.37;99658.50;5072261;28;20059;-56
2022/08/02 06:10:14;;;;;;;13.35;9.10;;;;;;;23.92;54.64;99661.59;5074460;28;20029;-56
2022/08/02 06:13:01;;;;;;;13.02;8.40;;;;;;;25.60;50.00;99657.78;5072818;28;20017;-57
2022/08/02 06:15:26;;;;;;;15.43;9.07;;;;;;;24.26;52.10;99655.28;5075047;28;20164;-56
2022/08/02 06:17:52;;;;;;;18.05;8.90;;;;;;;23.90;54.20;99653.69;5070246;28;20148;-57
2022/08/02 06:20:17;;;;;;;18.27;9.38;;;;;;;23.75;54.51;99654.94;5075856;28;20036;-57
2022/08/02 06:22:43;;;;;;;15.93;9.27;;;;;;;22.40;58.75;99647.09;5072988;28;20063;-56
2022/08/02 06:25:12;;;;;;;14.27;9.35;;;;;;;24.73;52.26;99647.19;5071981;28;20032;-57
2022/08/02 06:27:39;;;;;;;16.77;8.25;;;;;;;26.75;47.33;99646.34;5070585;28;20031;-56
2022/08/02 06:30:05;;;;;;;14.40;8.27;;;;;;;27.95;44.44;99647.06;5073421;28;20439;-57
2022/08/02 06:32:31;;;;;;;12.15;7.93;;;;;;;27.63;45.05;99648.81;5070568;28;20228;-56
2022/08/02 06:34:56;;;;;;;13.35;7.85;;;;;;;27.02;46.02;99642.16;5075598;28;20032;-57
2022/08/02 06:37:26;;;;;;;10.48;6.95;;;;;;;28.71;43.10;99652.75;5071100;28;20036;-56
2022/08/02 06:39:58;;;;;;;15.32;7.88;;;;;;;28.04;44.17;99650.47;5070924;28;20021;-57
2022/08/02 06:42:33;;;;;;;14.77;6.97;;;;;;;29.98;40.71;99660.91;5059858;28;20025;-57
2022/08/02 06:44:59;;;;;;;11.50;6.43;;;;;;;30.70;38.49;99647.34;5071822;28;20024;-56
2022/08/02 06:47:25;;;;;;;18.85;7.55;;;;;;;28.69;42.29;99647.56;5071828;28;20094;-56
2022/08/02 06:49:50;;;;;;;12.40;7.38;;;;;;;28.44;43.13;99641.34;5053988;28;20039;-56
2022/08/02 06:52:16;;;;;;;12.05;7.15;;;;;;;28.80;42.41;99636.81;5073330;28;20033;-57
2022/08/02 06:54:41;;;;;;;11.65;6.30;;;;;;;29.60;41.05;99632.03;5071608;28;20074;-56
2022/08/02 06:57:08;;;;;;;14.45;7.28;;;;;;;29.85;40.02;99640.88;5070537;28;20029;-57
2022/08/02 06:59:33;;;;;;;19.92;6.72;;;;;;;30.27;38.97;99654.81;5071591;28;20025;-56
2022/08/02 07:02:01;;;;;;;15.25;7.55;;;;;;;29.78;39.40;99647.09;5077155;28;20028;-58
2022/08/02 07:04:26;;;;;;;17.25;6.93;;;;;;;30.01;39.62;99652.69;5071155;28;20044;-58
2022/08/02 07:06:52;;;;;;;13.23;7.72;;;;;;;29.43;40.51;99653.38;5071761;28;20075;-57
2022/08/02 07:09:17;;;;;;;13.20;7.47;;;;;;;27.43;44.74;99648.63;5070692;28;20378;-56
2022/08/02 07:11:43;;;;;;;16.45;8.48;;;;;;;27.13;44.60;99653.50;5066536;28;20029;-57
2022/08/02 07:14:08;;;;;;;22.23;7.90;;;;;;;29.50;40.55;99649.97;5071477;28;20497;-57
2022/08/02 07:16:33;;;;;;;12.68;8.25;;;;;;;29.01;41.22;99642.88;5071020;28;20435;-56
2022/08/02 07:18:59;;;;;;;15.55;7.68;;;;;;;27.58;44.25;99644.34;5075817;28;20035;-56
2022/08/02 07:21:24;;;;;;;14.02;8.20;;;;;;;26.68;45.62;99637.84;5075633;28;20028;-56
2022/08/02 07:23:50;;;;;;;15.23;8.75;;;;;;;25.64;47.87;99636.00;5071621;28;20027;-59
2022/08/02 07:26:15;;;;;;;14.85;8.95;;;;;;;26.35;47.83;99635.09;5072032;28;20086;-56
2022/08/02 07:28:40;;;;;;;13.40;8.52;;;;;;;26.96;46.08;99623.47;5071443;28;20033;-56
2022/08/02 07:31:06;;;;;;;19.17;9.30;;;;;;;26.15;47.81;99632.06;5071403;28;20089;-56
2022/08/02 07:33:31;;;;;;;14.32;8.93;;;;;;;25.16;49.49;99633.34;5070885;28;20032;-57
2022/08/02 07:35:57;;;;;;;12.52;8.88;;;;;;;26.81;46.43;99624.94;5071530;28;20024;-57
2022/08/02 07:38:23;;;;;;;15.98;11.07;;;;;;;24.19;51.39;99627.56;5070119;28;20025;-57
2022/08/02 07:40:49;;;;;;;14.90;8.68;;;;;;;27.96;44.25;99621.94;5071576;28;20463;-57
2022/08/02 07:43:15;;;;;;;16.73;10.50;;;;;;;27.51;44.25;99624.88;5073528;28;20120;-56
2022/08/02 07:45:41;;;;;;;14.45;8.25;;;;;;;29.13;41.55;99630.16;5071114;28;20032;-57
2022/08/02 07:48:07;;;;;;;13.90;8.38;;;;;;;29.84;39.52;99640.09;5072760;28;20036;-55
2022/08/02 07:50:32;;;;;;;17.85;8.20;;;;;;;30.41;38.59;99637.72;5075390;28;20043;-56
2022/08/02 07:52:58;;;;;;;20.27;9.07;;;;;;;29.33;39.89;99648.41;5074983;28;20041;-56
2022/08/02 07:55:24;;;;;;;15.23;9.13;;;;;;;29.73;39.58;99641.84;5074719;28;20459;-57
2022/08/02 07:57:49;;;;;;;17.95;10.27;;;;;;;26.94;43.64;99632.06;5074834;28;20391;-56
2022/08/02 08:00:16;;;;;;;19.20;10.48;;;;;;;28.99;41.14;99631.38;5074585;28;20032;-57
2022/08/02 08:02:41;;;;;;;24.10;11.50;;;;;;;27.44;43.15;99630.16;5077067;28;20051;-55
2022/08/02 08:05:07;;;;;;;23.40;10.40;;;;;;;27.41;43.66;99628.06;5075072;28;20474;-56
2022/08/02 08:07:33;;;;;;;15.18;8.70;;;;;;;28.79;41.74;99624.19;5079687;28;20093;-56
2022/08/02 08:09:59;;;;;;;23.02;9.38;;;;;;;29.38;40.33;99627.97;5075266;28;20435;-56
2022/08/02 08:12:25;;;;;;;18.33;9.13;;;;;;;28.95;40.44;99621.41;5073224;28;20028;-57
2022/08/02 08:14:50;;;;;;;18.58;8.65;;;;;;;27.80;42.85;99615.50;5074212;28;20031;-56
2022/08/02 08:17:16;;;;;;;12.00;7.50;;;;;;;29.77;39.34;99622.56;5075864;28;20032;-56
2022/08/02 08:19:41;;;;;;;14.98;7.25;;;;;;;29.91;37.72;99622.09;5075990;28;20028;-56
2022/08/02 08:22:07;;;;;;;12.20;6.45;;;;;;;29.68;37.71;99625.56;5074419;28;20024;-55
2022/08/02 08:24:32;;;;;;;10.35;6.13;;;;;;;29.01;38.81;99612.53;5074177;28;20475;-56
2022/08/02 08:26:57;;;;;;;8.40;3.38;;;;;;;30.39;34.57;99617.13;5074171;28;20104;-57
2022/08/02 08:29:23;;;;;;;6.78;3.15;;;;;;;31.21;33.00;99615.00;5074617;28;20033;-55
2022/08/02 08:31:48;;;;;;;9.85;3.75;;;;;;;30.65;33.64;99611.69;5080091;28;20467;-55
2022/08/02 08:34:14;;;;;;;7.78;3.42;;;;;;;29.17;36.36;99617.25;5073733;28;20037;-56
2022/08/02 08:36:40;;;;;;;6.05;2.97;;;;;;;28.64;36.27;99608.44;5073947;28;20042;-55
2022/08/02 08:39:05;;;;;;;7.05;2.80;;;;;;;29.04;35.23;99620.06;5079537;28;20031;-55
2022/08/02 08:41:31;;;;;;;6.57;3.05;;;;;;;29.78;33.81;99613.94;5073517;28;20021;-56
2022/08/02 08:43:58;;;;;;;8.05;3.10;;;;;;;28.62;36.45;99608.78;5073754;28;20035;-54
2022/08/02 08:46:27;;;;;;;11.95;3.35;;;;;;;26.67;38.65;99611.53;5072462;28;20432;-54
2022/08/02 08:49:05;;;;;;;5.13;3.50;;;;;;;28.37;36.24;99603.38;5077464;28;20033;-56
2022/08/02 08:51:34;;;;;;;5.60;3.25;;;;;;;28.76;35.83;99602.84;5074071;28;20048;-56
2022/08/02 08:54:02;;;;;;;9.98;3.47;;;;;;;29.78;34.37;99611.16;5073471;28;20025;-57
2022/08/02 08:56:31;;;;;;;7.05;3.17;;;;;;;26.84;39.06;99600.31;5073827;28;20028;-57
2022/08/02 08:58:57;;;;;;;7.22;2.90;;;;;;;29.13;35.46;99602.56;5074668;28;20020;-57
2022/08/02 09:01:25;;;;;;;5.70;2.95;;;;;;;29.37;35.23;99599.59;5073433;28;20041;-56
2022/08/02 09:03:50;;;;;;;5.57;2.83;;;;;;;27.82;36.90;99585.69;5073013;28;20041;-56
2022/08/02 09:06:16;;;;;;;5.43;2.85;;;;;;;28.53;35.61;99588.81;5073446;28;20024;-57
2022/08/02 09:08:41;;;;;;;6.95;2.92;;;;;;;29.19;34.91;99587.34;5082390;28;20028;-57
2022/08/02 09:11:18;;;;;;;6.80;2.80;;;;;;;27.42;38.56;99582.91;5073429;28;20067;-54
2022/08/02 09:13:57;;;;;;;8.02;3.28;;;;;;;28.79;36.70;99585.56;5073354;28;20116;-56
2022/08/02 09:16:34;;;;;;;7.45;3.10;;;;;;;29.20;36.59;99586.16;5081587;28;20055;-57
2022/08/02 09:19:15;;;;;;;7.40;3.20;;;;;;;29.56;36.45;99584.22;5072959;28;20036;-55
2022/08/02 09:21:40;;;;;;;9.82;3.13;;;;;;;27.67;38.57;99583.66;5073046;28;20089;-56
2022/08/02 09:24:17;;;;;;;7.70;3.80;;;;;;;28.56;38.04;99583.44;5072958;28;20024;-54
2022/08/02 09:26:43;;;;;;;8.10;3.10;;;;;;;29.02;37.41;99588.47;5073102;28;20059;-55
2022/08/02 09:29:08;;;;;;;5.10;2.90;;;;;;;29.45;35.93;99584.78;5071733;28;20059;-55
2022/08/02 09:31:34;;;;;;;7.45;3.30;;;;;;;30.03;35.34;99584.06;5072871;28;20086;-54
2022/08/02 09:33:59;;;;;;;8.48;2.90;;;;;;;29.79;35.45;99582.38;5072053;28;20092;-54
2022/08/02 09:36:26;;;;;;;5.93;3.00;;;;;;;30.22;35.10;99577.69;5072794;28;20364;-56
2022/08/02 09:38:57;;;;;;;7.47;3.25;;;;;;;29.87;34.98;99583.31;5073795;28;20463;-55
2022/08/02 09:41:35;;;;;;;5.43;2.95;;;;;;;28.35;36.79;99582.81;5071700;28;20131;-55
2022/08/02 09:44:01;;;;;;;8.02;2.95;;;;;;;29.30;36.13;99580.09;5072567;28;20032;-56
2022/08/02 09:46:29;;;;;;;10.27;3.40;;;;;;;29.73;35.18;99578.31;5073077;28;20033;-55
2022/08/02 09:48:58;;;;;;;6.90;3.20;;;;;;;29.00;36.42;99590.78;5078530;28;20466;-55
2022/08/02 09:51:25;;;;;;;8.10;3.53;;;;;;;27.79;39.30;99580.06;5072687;28;20067;-55
2022/08/02 09:53:55;;;;;;;6.47;3.42;;;;;;;28.49;37.88;99572.22;5072298;28;20048;-55
2022/08/02 09:56:21;;;;;;;5.82;3.65;;;;;;;26.73;40.84;99577.16;5071786;28;20016;-56
2022/08/02 09:58:46;;;;;;;6.90;3.42;;;;;;;28.88;37.66;99577.91;5072324;28;20024;-55
2022/08/02 10:01:12;;;;;;;11.00;3.35;;;;;;;27.65;39.67;99566.69;5072284;28;20033;-55
2022/08/02 10:03:56;;;;;;;5.03;3.10;;;;;;;28.47;39.04;99569.00;5072030;28;20048;-54
2022/08/02 10:06:21;;;;;;;4.72;3.08;;;;;;;30.36;34.97;99562.56;5071343;28;20271;-56
2022/08/02 10:08:46;;;;;;;6.43;3.60;;;;;;;28.77;36.73;99563.84;5072182;28;20426;-57
2022/08/02 10:11:12;;;;;;;6.03;3.03;;;;;;;30.99;34.22;99553.75;5053457;28;20025;-55
2022/08/02 10:13:38;;;;;;;9.10;3.60;;;;;;;30.72;34.83;99559.22;5072012;28;20035;-55
2022/08/02 10:16:05;;;;;;;9.45;3.38;;;;;;;30.36;34.52;99566.13;5069480;28;20544;-56
2022/08/02 10:18:31;;;;;;;5.68;3.33;;;;;;;30.28;35.08;99569.94;5069285;28;20107;-56
2022/08/02 10:20:56;;;;;;;9.52;3.53;;;;;;;29.52;35.45;99566.78;5067791;28;20097;-57
2022/08/02 10:23:24;;;;;;;8.32;3.50;;;;;;;29.95;35.87;99562.16;5068169;28;20032;-56
2022/08/02 10:25:50;;;;;;;5.13;3.10;;;;;;;31.40;33.78;99556.75;5068068;28;20143;-56
2022/08/02 10:28:17;;;;;;;6.93;3.30;;;;;;;30.08;34.51;99560.84;5069406;28;20131;-57
2022/08/02 10:30:44;;;;;;;7.28;3.40;;;;;;;30.18;34.32;99554.72;5052026;28;20187;-56
2022/08/02 10:33:10;;;;;;;10.02;3.30;;;;;;;27.45;39.30;99546.44;5067813;28;20037;-56
2022/08/02 10:35:37;;;;;;;9.20;3.22;;;;;;;29.32;35.55;99546.63;5070764;28;20089;-56
2022/08/02 10:38:06;;;;;;;6.45;3.33;;;;;;;30.87;33.62;99540.13;5072546;28;20025;-55
2022/08/02 10:40:42;;;;;;;10.10;2.92;;;;;;;29.93;35.09;99542.38;5069587;28;20017;-56
2022/08/02 10:43:08;;;;;;;4.95;3.40;;;;;;;29.36;36.01;99542.78;5069090;28;20390;-56
2022/08/02 10:45:33;;;;;;;7.72;3.20;;;;;;;29.73;34.97;99544.34;5069572;28;20059;-55
2022/08/02 10:48:07;;;;;;;7.60;3.17;;;;;;;28.13;37.90;99532.66;5069047;28;20410;-55
2022/08/02 10:50:44;;;;;;;5.32;3.40;;;;;;;29.43;35.67;99534.66;5067576;28;20025;-58
2022/08/02 10:53:22;;;;;;;7.82;3.40;;;;;;;29.89;35.33;99531.25;5069297;28;20078;-56
2022/08/02 10:55:48;;;;;;;5.93;3.30;;;;;;;30.28;35.17;99526.50;5069443;28;20422;-56
2022/08/02 10:58:22;;;;;;;7.90;3.58;;;;;;;28.17;37.63;99528.03;5069296;28;20032;-56
2022/08/02 11:00:48;;;;;;;7.07;3.35;;;;;;;29.31;36.50;99518.22;5073753;28;20032;-56
2022/08/02 11:03:35;;;;;;;7.97;3.30;;;;;;;29.26;35.61;99526.00;5067993;28;20471;-56
2022/08/02 11:06:01;;;;;;;6.60;3.25;;;;;;;30.76;34.08;99517.81;5075779;28;20192;-56
2022/08/02 11:08:27;;;;;;;7.32;3.35;;;;;;;31.21;33.32;99518.09;5068716;28;20470;-56
2022/08/02 11:10:56;;;;;;;6.40;3.20;;;;;;;31.51;32.28;99510.63;5067540;28;20029;-57
2022/08/02 11:13:22;;;;;;;5.38;2.90;;;;;;;31.48;32.76;99505.84;5068098;28;20038;-55
2022/08/02 11:15:50;;;;;;;4.90;3.15;;;;;;;31.56;32.08;99510.28;5068990;28;20032;-56
2022/08/02 11:18:15;;;;;;;6.05;2.97;;;;;;;31.94;31.78;99510.34;5070791;28;20032;-54
2022/08/02 11:20:41;;;;;;;4.28;2.80;;;;;;;31.21;32.51;99512.56;5071582;28;20028;-54
2022/08/02 11:23:38;;;;;;;5.05;3.17;;;;;;;31.85;31.65;99515.34;5073422;28;20097;-56
2022/08/02 11:26:29;;;;;;;7.65;3.00;;;;;;;32.05;31.68;99502.13;5075149;28;20037;-55
2022/08/02 11:28:58;;;;;;;7.60;3.28;;;;;;;32.93;30.60;99506.88;5075065;28;20029;-56